createdAt,value
2022-12-25T00:01:09.419Z,9.20
2022-12-25T00:03:36.771Z,8.90
2022-12-25T00:06:03.747Z,8.90
2022-12-25T00:08:30.873Z,9.70
2022-12-25T00:10:59.482Z,9.20
2022-12-25T00:13:26.461Z,9.00
2022-12-25T00:15:53.337Z,9.30
2022-12-25T00:18:19.999Z,9.10
2022-12-25T00:20:58.307Z,9.20
2022-12-25T00:23:26.999Z,9.00
2022-12-25T00:25:54.422Z,9.10
2022-12-25T00:28:22.125Z,9.50
2022-12-25T00:30:49.058Z,10.30
2022-12-25T00:33:16.403Z,9.50
2022-12-25T00:35:43.753Z,9.80
2022-12-25T00:38:10.438Z,10.50
2022-12-25T00:40:44.182Z,9.50
2022-12-25T00:43:11.270Z,9.20
2022-12-25T00:45:38.054Z,9.50
2022-12-25T00:48:04.971Z,9.30
2022-12-25T00:50:31.615Z,9.20
2022-12-25T00:52:58.377Z,9.10
2022-12-25T00:55:25.132Z,9.40
2022-12-25T00:57:51.834Z,9.70
2022-12-25T01:00:18.725Z,9.60
2022-12-25T01:02:45.479Z,9.50
2022-12-25T01:05:12.275Z,9.20
2022-12-25T01:07:40.066Z,9.30
2022-12-25T01:10:22.601Z,9.00
2022-12-25T01:12:50.047Z,9.20
2022-12-25T01:15:17.280Z,9.80
2022-12-25T01:17:44.506Z,9.20
2022-12-25T01:20:14.108Z,9.30
2022-12-25T01:22:42.095Z,9.50
2022-12-25T01:25:09.735Z,9.50
2022-12-25T01:27:36.573Z,9.70
2022-12-25T01:30:03.522Z,9.50
2022-12-25T01:32:30.223Z,9.30
2022-12-25T01:34:56.935Z,9.30
2022-12-25T01:37:26.637Z,9.20
2022-12-25T01:39:53.274Z,9.70
2022-12-25T01:42:22.159Z,9.30
2022-12-25T01:44:48.870Z,9.20
2022-12-25T01:47:17.697Z,9.50
2022-12-25T01:49:49.423Z,9.10
2022-12-25T01:52:24.053Z,9.70
2022-12-25T01:55:00.001Z,9.50
2022-12-25T01:57:30.793Z,9.30
2022-12-25T01:59:58.943Z,9.10
2022-12-25T02:02:27.210Z,9.10
2022-12-25T02:04:58.738Z,9.20
2022-12-25T02:07:27.546Z,9.00
2022-12-25T02:09:54.523Z,9.10
2022-12-25T02:12:24.874Z,9.00
2022-12-25T02:14:59.667Z,9.30
2022-12-25T02:17:44.739Z,8.90
2022-12-25T02:20:30.153Z,8.80
2022-12-25T02:23:32.133Z,8.70
2022-12-25T02:26:33.871Z,8.70
2022-12-25T02:29:17.366Z,8.70
2022-12-25T02:31:54.160Z,8.60
2022-12-25T02:34:32.965Z,8.70
2022-12-25T02:37:16.514Z,8.60
2022-12-25T02:39:58.804Z,8.50
2022-12-25T02:42:53.958Z,8.50
2022-12-25T02:46:13.240Z,8.50
2022-12-25T02:49:05.771Z,8.50
2022-12-25T02:51:55.098Z,8.60
2022-12-25T02:54:52.943Z,8.50
2022-12-25T02:57:43.683Z,8.60
2022-12-25T03:00:30.078Z,8.60
2022-12-25T03:03:19.303Z,8.60
2022-12-25T03:06:05.728Z,8.50
2022-12-25T03:08:39.971Z,8.60
2022-12-25T03:11:27.797Z,8.50
2022-12-25T03:14:17.986Z,8.60
2022-12-25T03:16:50.533Z,8.50
2022-12-25T03:19:42.179Z,8.60
2022-12-25T03:22:31.739Z,8.70
2022-12-25T03:25:17.864Z,8.90
2022-12-25T03:27:47.334Z,9.20
2022-12-25T03:30:33.034Z,8.90
2022-12-25T03:33:36.746Z,8.90
2022-12-25T03:36:25.136Z,8.80
2022-12-25T03:39:23.390Z,8.90
2022-12-25T03:42:19.216Z,9.00
2022-12-25T03:45:28.764Z,9.60
2022-12-25T03:48:15.823Z,9.60
2022-12-25T03:51:08.998Z,9.70
2022-12-25T03:54:04.242Z,9.50
2022-12-25T03:56:51.256Z,9.20
2022-12-25T03:59:40.931Z,9.10
2022-12-25T04:02:26.866Z,9.20
2022-12-25T04:05:12.761Z,9.20
2022-12-25T04:07:58.232Z,9.00
2022-12-25T04:10:43.652Z,9.10
2022-12-25T04:13:29.062Z,9.10
2022-12-25T04:16:14.693Z,9.20
2022-12-25T04:19:00.101Z,9.00
2022-12-25T04:21:45.932Z,9.60
2022-12-25T04:24:32.347Z,9.20
2022-12-25T04:27:17.843Z,9.20
2022-12-25T04:30:03.221Z,9.30
2022-12-25T04:32:48.709Z,9.20
2022-12-25T04:35:34.284Z,9.20
2022-12-25T04:38:01.043Z,9.40
2022-12-25T04:40:27.768Z,9.10
2022-12-25T04:42:54.421Z,9.30
2022-12-25T04:45:21.181Z,9.50
2022-12-25T04:47:47.837Z,9.20
2022-12-25T04:50:14.650Z,9.10
2022-12-25T04:52:42.022Z,9.20
2022-12-25T04:55:10.610Z,9.00
2022-12-25T04:57:37.867Z,8.90
2022-12-25T05:00:07.209Z,9.00
2022-12-25T05:02:34.275Z,9.10
2022-12-25T05:05:01.200Z,8.90
2022-12-25T05:07:27.952Z,9.40
2022-12-25T05:09:54.731Z,9.20
2022-12-25T05:12:21.461Z,9.10
2022-12-25T05:14:48.098Z,9.00
2022-12-25T05:17:14.817Z,8.90
2022-12-25T05:19:42.296Z,8.80
2022-12-25T05:22:09.391Z,8.80
2022-12-25T05:24:36.120Z,9.00
2022-12-25T05:27:02.876Z,9.30
2022-12-25T05:29:29.543Z,9.20
2022-12-25T05:31:56.212Z,9.00
2022-12-25T05:34:22.944Z,8.80
2022-12-25T05:36:49.603Z,8.80
2022-12-25T05:39:16.261Z,8.80
2022-12-25T05:41:44.032Z,9.00
2022-12-25T05:44:10.763Z,8.90
2022-12-25T05:46:37.477Z,8.90
2022-12-25T05:49:05.644Z,9.20
2022-12-25T05:51:33.066Z,9.20
2022-12-25T05:53:59.809Z,8.90
2022-12-25T05:56:26.612Z,8.90
2022-12-25T05:58:53.392Z,8.80
2022-12-25T06:01:23.215Z,9.00
2022-12-25T06:03:50.145Z,8.90
2022-12-25T06:06:17.048Z,8.70
2022-12-25T06:08:46.633Z,8.70
2022-12-25T06:11:14.651Z,8.60
2022-12-25T06:13:41.496Z,8.60
2022-12-25T06:16:10.913Z,8.60
2022-12-25T06:18:39.552Z,8.70
2022-12-25T06:21:11.179Z,8.60
2022-12-25T06:23:38.460Z,8.60
2022-12-25T06:26:12.760Z,8.90
2022-12-25T06:28:39.927Z,8.70
2022-12-25T06:31:21.362Z,8.60
2022-12-25T06:33:48.310Z,8.60
2022-12-25T06:36:23.187Z,8.70
2022-12-25T06:38:51.634Z,8.60
2022-12-25T06:41:23.655Z,8.90
2022-12-25T06:43:52.182Z,8.80
2022-12-25T06:46:19.666Z,8.80
2022-12-25T06:48:50.154Z,8.80
2022-12-25T06:51:17.530Z,8.80
2022-12-25T06:53:44.342Z,9.10
2022-12-25T06:56:15.647Z,8.80
2022-12-25T06:58:44.461Z,8.80
2022-12-25T07:01:43.927Z,9.50
2022-12-25T07:04:27.291Z,11.10
2022-12-25T07:06:54.110Z,11.20
2022-12-25T07:09:20.801Z,11.40
2022-12-25T07:11:48.558Z,11.90
2022-12-25T07:14:23.760Z,12.20
2022-12-25T07:16:50.896Z,11.60
2022-12-25T07:19:19.230Z,12.20
2022-12-25T07:21:46.283Z,12.40
2022-12-25T07:24:18.921Z,12.50
2022-12-25T07:26:45.643Z,12.40
2022-12-25T07:29:12.376Z,12.50
2022-12-25T07:31:39.099Z,12.10
2022-12-25T07:34:05.835Z,12.00
2022-12-25T07:36:34.350Z,12.20
2022-12-25T07:39:02.481Z,12.00
2022-12-25T07:41:29.248Z,12.00
2022-12-25T07:43:55.917Z,12.70
2022-12-25T07:46:23.492Z,12.10
2022-12-25T07:48:50.308Z,12.30
2022-12-25T07:51:17.098Z,12.50
2022-12-25T07:53:43.865Z,12.30
2022-12-25T07:56:16.066Z,12.40
2022-12-25T07:58:44.263Z,12.50
2022-12-25T08:01:21.275Z,12.40
2022-12-25T08:04:06.290Z,10.70
2022-12-25T08:06:34.906Z,10.10
2022-12-25T08:09:10.348Z,9.70
2022-12-25T08:11:37.564Z,9.70
2022-12-25T08:14:08.576Z,9.90
2022-12-25T08:16:36.068Z,10.10
2022-12-25T08:19:02.814Z,10.30
2022-12-25T08:21:29.448Z,10.40
2022-12-25T08:23:56.186Z,10.60
2022-12-25T08:26:23.536Z,10.10
2022-12-25T08:28:50.956Z,9.90
2022-12-25T08:31:22.544Z,9.70
2022-12-25T08:33:51.538Z,9.60
2022-12-25T08:36:19.270Z,9.30
2022-12-25T08:38:46.935Z,9.20
2022-12-25T08:41:14.676Z,9.10
2022-12-25T08:43:41.671Z,9.20
2022-12-25T08:46:08.842Z,9.20
2022-12-25T08:48:35.971Z,9.20
2022-12-25T08:51:03.559Z,9.40
2022-12-25T08:53:30.591Z,9.20
2022-12-25T08:56:06.622Z,9.20
2022-12-25T08:58:34.451Z,9.20
2022-12-25T09:01:01.646Z,9.10
2022-12-25T09:03:28.787Z,9.20
2022-12-25T09:05:56.205Z,9.20
2022-12-25T09:08:22.965Z,9.10
2022-12-25T09:10:49.954Z,9.00
2022-12-25T09:13:16.808Z,9.00
2022-12-25T09:15:43.657Z,9.10
2022-12-25T09:18:10.487Z,9.10
2022-12-25T09:20:37.230Z,9.10
2022-12-25T09:23:13.316Z,9.10
2022-12-25T09:25:40.305Z,9.10
2022-12-25T09:28:07.936Z,9.20
2022-12-25T09:30:35.683Z,9.30
2022-12-25T09:33:02.375Z,9.30
2022-12-25T09:35:29.166Z,10.00
2022-12-25T09:37:55.819Z,10.60
2022-12-25T09:40:28.770Z,10.90
2022-12-25T09:42:56.414Z,11.40
2022-12-25T09:45:37.725Z,10.90
2022-12-25T09:48:05.090Z,10.50
2022-12-25T09:50:49.064Z,10.10
2022-12-25T09:53:32.549Z,10.40
2022-12-25T09:56:11.382Z,10.30
2022-12-25T09:58:38.779Z,10.00
2022-12-25T10:01:24.431Z,10.00
2022-12-25T10:04:06.222Z,10.00
2022-12-25T10:06:49.792Z,10.30
2022-12-25T10:09:38.235Z,10.60
2022-12-25T10:12:27.335Z,10.90
2022-12-25T10:15:12.956Z,10.40
2022-12-25T10:18:16.152Z,9.70
2022-12-25T10:21:07.978Z,9.60
2022-12-25T10:23:42.847Z,9.60
2022-12-25T10:26:19.665Z,9.50
2022-12-25T10:28:53.570Z,9.40
2022-12-25T10:31:23.474Z,9.40
2022-12-25T10:33:52.710Z,9.30
2022-12-25T10:36:23.326Z,9.30
2022-12-25T10:38:50.688Z,9.30
2022-12-25T10:41:20.144Z,9.30
2022-12-25T10:43:53.511Z,9.20
2022-12-25T10:46:22.023Z,9.30
2022-12-25T10:48:58.379Z,9.30
2022-12-25T10:51:39.613Z,9.30
2022-12-25T10:54:27.467Z,9.30
2022-12-25T10:56:58.376Z,9.20
2022-12-25T10:59:27.725Z,9.20
2022-12-25T11:01:56.025Z,9.20
2022-12-25T11:04:28.582Z,9.20
2022-12-25T11:07:07.496Z,9.20
2022-12-25T11:09:34.577Z,9.20
2022-12-25T11:12:01.733Z,9.20
2022-12-25T11:14:29.222Z,9.30
2022-12-25T11:17:08.747Z,9.30
2022-12-25T11:19:35.537Z,9.30
2022-12-25T11:22:05.071Z,9.20
2022-12-25T11:24:33.311Z,9.20
2022-12-25T11:27:04.526Z,9.30
2022-12-25T11:29:47.372Z,9.30
2022-12-25T11:32:33.183Z,9.30
2022-12-25T11:35:01.639Z,9.30
2022-12-25T11:37:44.638Z,9.30
2022-12-25T11:40:21.791Z,9.30
2022-12-25T11:42:55.827Z,9.40
2022-12-25T11:45:38.299Z,9.30
2022-12-25T11:48:14.149Z,9.40
2022-12-25T11:50:46.764Z,9.40
2022-12-25T11:53:38.362Z,9.40
2022-12-25T11:56:28.885Z,9.50
2022-12-25T11:59:18.639Z,9.60
2022-12-25T12:01:52.080Z,9.50
2022-12-25T12:04:30.061Z,9.50
2022-12-25T12:07:23.034Z,9.60
2022-12-25T12:10:19.456Z,9.70
2022-12-25T12:13:10.179Z,10.00
2022-12-25T12:15:46.439Z,10.40
2022-12-25T12:18:20.227Z,10.30
2022-12-25T12:21:17.759Z,10.20
2022-12-25T12:24:06.030Z,10.20
2022-12-25T12:26:37.949Z,10.10
2022-12-25T12:29:07.694Z,10.10
2022-12-25T12:31:54.240Z,10.10
2022-12-25T12:34:37.520Z,10.00
2022-12-25T12:37:07.895Z,9.90
2022-12-25T12:39:40.133Z,9.90
2022-12-25T12:42:18.807Z,10.10
2022-12-25T12:44:46.203Z,10.30
2022-12-25T12:47:31.504Z,10.40
2022-12-25T12:50:01.136Z,10.70
2022-12-25T12:52:36.675Z,10.60
2022-12-25T12:55:13.148Z,10.50
2022-12-25T12:57:41.697Z,10.60
2022-12-25T13:00:18.556Z,10.70
2022-12-25T13:03:07.998Z,10.60
2022-12-25T13:05:57.948Z,10.60
2022-12-25T13:08:48.516Z,10.50
2022-12-25T13:11:23.652Z,10.50
2022-12-25T13:13:52.790Z,10.70
2022-12-25T13:16:40.881Z,10.60
2022-12-25T13:19:12.661Z,10.50
2022-12-25T13:21:39.407Z,10.60
2022-12-25T13:24:19.582Z,10.30
2022-12-25T13:26:52.544Z,10.40
2022-12-25T13:29:22.900Z,10.70
2022-12-25T13:31:50.123Z,10.90
2022-12-25T13:34:23.297Z,10.60
2022-12-25T13:36:50.308Z,10.50
2022-12-25T13:39:18.905Z,10.60
2022-12-25T13:42:05.437Z,10.70
2022-12-25T13:44:42.812Z,10.60
2022-12-25T13:47:43.197Z,10.90
2022-12-25T13:50:31.925Z,11.00
2022-12-25T13:53:15.586Z,11.00
2022-12-25T13:55:52.561Z,10.90
2022-12-25T13:58:25.988Z,10.80
2022-12-25T14:00:56.648Z,10.50
2022-12-25T14:03:35.481Z,10.90
2022-12-25T14:06:05.256Z,10.70
2022-12-25T14:08:36.545Z,11.00
2022-12-25T14:11:05.841Z,10.90
2022-12-25T14:13:41.817Z,10.90
2022-12-25T14:16:09.868Z,10.70
2022-12-25T14:18:37.197Z,10.70
2022-12-25T14:21:16.118Z,10.60
2022-12-25T14:23:49.475Z,10.50
2022-12-25T14:26:20.126Z,10.50
2022-12-25T14:28:52.445Z,10.50
2022-12-25T14:31:20.441Z,10.50
2022-12-25T14:33:48.088Z,10.50
2022-12-25T14:36:15.591Z,10.50
2022-12-25T14:38:44.606Z,10.50
2022-12-25T14:41:33.298Z,10.50
2022-12-25T14:44:06.964Z,10.40
2022-12-25T14:46:34.709Z,10.40
2022-12-25T14:49:02.696Z,10.50
2022-12-25T14:51:32.707Z,10.40
2022-12-25T14:54:03.238Z,10.50
2022-12-25T14:56:37.992Z,10.40
2022-12-25T14:59:07.717Z,10.40
2022-12-25T15:01:41.145Z,10.30
2022-12-25T15:04:15.990Z,9.70
2022-12-25T15:06:54.717Z,9.30
2022-12-25T15:09:22.632Z,9.30
2022-12-25T15:11:57.581Z,9.30
2022-12-25T15:14:25.850Z,9.30
2022-12-25T15:16:55.599Z,9.20
2022-12-25T15:19:38.064Z,9.20
2022-12-25T15:22:06.495Z,9.20
2022-12-25T15:24:33.264Z,9.20
2022-12-25T15:27:00.615Z,9.10
2022-12-25T15:30:00.031Z,9.20
2022-12-25T15:32:20.744Z,9.20
2022-12-25T15:34:49.739Z,9.20
2022-12-25T15:37:18.296Z,9.50
2022-12-25T15:39:45.396Z,9.90
2022-12-25T15:42:17.419Z,9.90
2022-12-25T15:44:45.329Z,10.00
2022-12-25T15:47:13.625Z,10.10
2022-12-25T15:49:41.219Z,10.40
2022-12-25T15:52:10.248Z,10.30
2022-12-25T15:54:37.005Z,10.30
2022-12-25T15:57:07.268Z,10.60
2022-12-25T15:59:34.392Z,10.20
2022-12-25T16:02:01.894Z,9.50
2022-12-25T16:04:31.319Z,9.40
2022-12-25T16:06:59.450Z,9.40
2022-12-25T16:09:27.511Z,9.40
2022-12-25T16:11:54.183Z,9.30
2022-12-25T16:14:22.947Z,9.30
2022-12-25T16:16:49.583Z,9.30
2022-12-25T16:19:16.225Z,9.30
2022-12-25T16:21:45.376Z,9.50
2022-12-25T16:24:13.562Z,9.70
2022-12-25T16:26:40.536Z,9.90
2022-12-25T16:29:07.922Z,9.90
2022-12-25T16:31:36.225Z,9.90
2022-12-25T16:34:03.548Z,9.90
2022-12-25T16:36:30.288Z,9.90
2022-12-25T16:38:57.218Z,10.00
2022-12-25T16:41:24.132Z,9.90
2022-12-25T16:43:50.867Z,10.10
2022-12-25T16:46:20.746Z,10.10
2022-12-25T16:48:47.689Z,10.20
2022-12-25T16:51:16.619Z,10.30
2022-12-25T16:53:43.972Z,10.30
2022-12-25T16:56:14.763Z,10.20
2022-12-25T16:58:43.161Z,10.10
2022-12-25T17:01:16.120Z,10.20
2022-12-25T17:03:43.214Z,10.30
2022-12-25T17:06:20.549Z,10.30
2022-12-25T17:08:47.567Z,10.50
2022-12-25T17:11:14.909Z,10.60
2022-12-25T17:13:45.851Z,10.70
2022-12-25T17:16:20.768Z,10.70
2022-12-25T17:18:47.529Z,10.00
2022-12-25T17:21:14.812Z,9.40
2022-12-25T17:23:43.025Z,9.30
2022-12-25T17:26:25.884Z,9.30
2022-12-25T17:28:56.273Z,9.30
2022-12-25T17:31:23.393Z,9.80
2022-12-25T17:33:50.100Z,10.20
2022-12-25T17:36:19.684Z,10.40
2022-12-25T17:38:47.604Z,10.50
2022-12-25T17:41:16.456Z,10.50
2022-12-25T17:43:45.651Z,10.50
2022-12-25T17:46:24.062Z,10.70
2022-12-25T17:48:51.821Z,10.70
2022-12-25T17:51:24.093Z,10.60
2022-12-25T17:53:53.780Z,10.50
2022-12-25T17:56:22.741Z,10.60
2022-12-25T17:58:51.841Z,10.60
2022-12-25T18:01:18.853Z,10.30
2022-12-25T18:03:46.974Z,10.50
2022-12-25T18:06:17.631Z,10.60
2022-12-25T18:08:45.712Z,10.50
2022-12-25T18:11:19.356Z,10.50
2022-12-25T18:13:49.820Z,10.50
2022-12-25T18:16:17.514Z,10.50
2022-12-25T18:18:51.420Z,10.30
2022-12-25T18:21:19.120Z,10.40
2022-12-25T18:23:46.435Z,10.40
2022-12-25T18:26:13.602Z,10.50
2022-12-25T18:28:42.540Z,10.60
2022-12-25T18:31:21.473Z,10.70
2022-12-25T18:33:49.590Z,10.80
2022-12-25T18:36:23.160Z,10.60
2022-12-25T18:38:52.278Z,10.60
2022-12-25T18:41:20.624Z,10.60
2022-12-25T18:43:53.050Z,10.70
2022-12-25T18:46:26.462Z,10.80
2022-12-25T18:48:55.503Z,11.00
2022-12-25T18:51:22.662Z,10.70
2022-12-25T18:53:49.433Z,10.20
2022-12-25T18:56:18.045Z,10.00
2022-12-25T18:58:46.491Z,9.80
2022-12-25T19:01:24.393Z,9.80
2022-12-25T19:03:51.981Z,9.70
2022-12-25T19:06:21.104Z,9.70
2022-12-25T19:08:48.022Z,9.60
2022-12-25T19:11:15.239Z,9.70
2022-12-25T19:13:42.306Z,9.70
2022-12-25T19:16:09.347Z,9.70
2022-12-25T19:18:36.921Z,9.70
2022-12-25T19:21:06.362Z,9.60
2022-12-25T19:23:33.186Z,9.70
2022-12-25T19:26:00.196Z,9.70
2022-12-25T19:28:27.930Z,9.80
2022-12-25T19:30:54.720Z,9.70
2022-12-25T19:33:22.571Z,9.70
2022-12-25T19:35:49.714Z,9.70
2022-12-25T19:38:17.487Z,9.80
2022-12-25T19:41:00.260Z,9.80
2022-12-25T19:43:32.525Z,9.70
2022-12-25T19:46:01.363Z,9.80
2022-12-25T19:48:28.627Z,9.80
2022-12-25T19:50:55.439Z,9.70
2022-12-25T19:53:23.747Z,9.80
2022-12-25T19:55:54.248Z,9.80
2022-12-25T19:58:21.791Z,9.80
2022-12-25T20:01:05.055Z,9.70
2022-12-25T20:03:45.717Z,9.70
2022-12-25T20:06:19.979Z,9.80
2022-12-25T20:08:48.110Z,9.80
2022-12-25T20:11:17.387Z,9.80
2022-12-25T20:13:44.347Z,9.80
2022-12-25T20:16:11.431Z,9.70
2022-12-25T20:18:39.450Z,9.80
2022-12-25T20:21:10.942Z,9.80
2022-12-25T20:23:37.880Z,9.70
2022-12-25T20:26:05.428Z,9.90
2022-12-25T20:28:34.099Z,9.80
2022-12-25T20:31:06.458Z,9.70
2022-12-25T20:33:33.943Z,9.70
2022-12-25T20:36:02.425Z,9.80
2022-12-25T20:38:29.917Z,9.70
2022-12-25T20:43:56.143Z,9.70
2022-12-25T20:46:23.524Z,9.70
2022-12-25T20:48:50.419Z,9.80
2022-12-25T20:51:20.600Z,9.70
2022-12-25T20:53:47.711Z,9.70
2022-12-25T20:56:16.874Z,9.70
2022-12-25T20:58:43.861Z,9.70
2022-12-25T21:01:17.537Z,9.70
2022-12-25T21:03:44.952Z,9.80
2022-12-25T21:06:12.771Z,9.80
2022-12-25T21:08:43.514Z,9.80
2022-12-25T21:11:13.073Z,9.70
2022-12-25T21:13:42.409Z,9.70
2022-12-25T21:16:13.103Z,9.90
2022-12-25T21:18:40.080Z,10.00
2022-12-25T21:21:07.958Z,10.00
2022-12-25T21:23:36.205Z,9.90
2022-12-25T21:26:23.781Z,9.90
2022-12-25T21:28:52.969Z,9.80
2022-12-25T21:31:20.943Z,9.90
2022-12-25T21:33:54.352Z,9.90
2022-12-25T21:36:32.273Z,9.90
2022-12-25T21:39:07.174Z,9.90
2022-12-25T21:41:36.707Z,9.80
2022-12-25T21:44:03.486Z,9.70
2022-12-25T21:46:30.333Z,9.80
2022-12-25T21:48:57.717Z,9.90
2022-12-25T21:51:45.970Z,10.10
2022-12-25T21:54:13.732Z,10.00
2022-12-25T21:56:44.943Z,9.80
2022-12-25T21:59:17.705Z,9.80
2022-12-25T22:01:45.303Z,9.80
2022-12-25T22:04:14.048Z,9.80
2022-12-25T22:06:59.844Z,9.80
2022-12-25T22:09:27.823Z,9.80
2022-12-25T22:12:13.335Z,9.90
2022-12-25T22:14:55.305Z,9.60
2022-12-25T22:17:42.731Z,9.50
2022-12-25T22:20:30.785Z,9.60
2022-12-25T22:22:58.674Z,9.70
2022-12-25T22:25:25.569Z,10.00
2022-12-25T22:27:52.847Z,9.90
2022-12-25T22:30:22.765Z,10.10
2022-12-25T22:32:49.810Z,10.00
2022-12-25T22:35:17.134Z,9.90
2022-12-25T22:37:44.198Z,9.80
2022-12-25T22:40:14.031Z,9.70
2022-12-25T22:42:41.792Z,9.70
2022-12-25T22:45:09.180Z,9.70
2022-12-25T22:47:35.864Z,9.60
2022-12-25T22:50:02.656Z,9.60
2022-12-25T22:52:29.440Z,9.80
2022-12-25T22:54:56.145Z,9.70
2022-12-25T22:57:22.960Z,9.70
2022-12-25T22:59:52.053Z,9.70
2022-12-25T23:02:18.883Z,9.80
2022-12-25T23:04:45.775Z,10.20
2022-12-25T23:07:14.427Z,9.90
2022-12-25T23:09:41.648Z,10.00
2022-12-25T23:12:28.481Z,10.00
2022-12-25T23:14:55.777Z,10.80
2022-12-25T23:17:40.948Z,11.20
2022-12-25T23:20:26.939Z,10.40
2022-12-25T23:23:12.516Z,10.60
2022-12-25T23:25:57.997Z,10.90
2022-12-25T23:28:43.394Z,10.60
2022-12-25T23:31:10.128Z,10.20
2022-12-25T23:33:36.846Z,10.60
2022-12-25T23:36:03.676Z,10.70
2022-12-25T23:38:30.461Z,10.50
2022-12-25T23:40:58.203Z,12.20
2022-12-25T23:43:24.894Z,10.90
2022-12-25T23:45:51.591Z,10.70
2022-12-25T23:48:18.273Z,10.50
2022-12-25T23:50:44.913Z,10.40
2022-12-25T23:53:11.602Z,10.40
2022-12-25T23:55:38.344Z,11.10
2022-12-25T23:58:05.314Z,11.70
